Buoy 13516

sailwx.info

Track history (hours):
 
Tides and Currents Weather Stations Pressure Air Temp Water Temp Dewpoint Dewpoint Depression Visibility Wind Speed Wind Dir Waves Ship Positions

Ao Chao Yang 13516

Last reported at 2015-May-27 11:01 UTC. Time now 2015-May-27 11:52 UTC.
Position N 25°06' W 043°34'.

Length 20 m.

Type: Fishing. MMSI: 412469022.

Water temperature 24.0 ° C

Date/timePositionNaut miles runAvg speedWind from/ knotsBaromVisibWave heightAir tempDewpointWater temp
2015-May-27 11:01N 25°06' W 043°34'0 0.0 24.0
2015-May-27 09:54N 25°06' W 043°34'0 0.2 23.9
2015-May-27 08:01N 25°05' W 043°34'325.7 24.0
2015-May-27 07:54N 25°04' W 043°31'0 0.0
2015-May-27 07:03N 25°04' W 043°31'0 0.0 24.0
2015-May-27 06:45N 25°04' W 043°31'3 0.3 24.0
2015-May-26 21:12N 25°07' W 043°31'0 0.0 24.0
2015-May-26 19:54N 25°07' W 043°31'0 0.4 24.1
2015-May-26 18:30N 25°07' W 043°32'0 0.6 24.1
2015-May-26 17:54N 25°07' W 043°31'0 5.9 24.1
2015-May-26 17:49N 25°07' W 043°32'0 0.0 24.1
2015-May-26 16:54N 25°07' W 043°32'1 0.3 24.1
2015-May-26 15:12N 25°07' W 043°32'0 4.4 24.0
2015-May-26 15:07N 25°07' W 043°32'0 0.3 24.0
2015-May-26 13:58N 25°07' W 043°32'1 0.4 24.0
2015-May-26 12:13N 25°07' W 043°33'0 5.2 23.9
2015-May-26 12:09N 25°07' W 043°33'0 0.0 23.9
2015-May-26 10:33N 25°07' W 043°33'0 0.1 23.9
2015-May-26 08:34N 25°07' W 043°33'0 0.0 23.9
2015-May-26 08:07N 25°07' W 043°33'0 0.0 23.9
2015-May-26 08:06N 25°07' W 043°33'0 0.5 23.9
2015-May-26 07:13N 25°07' W 043°33'0 2.2 23.9
2015-May-26 07:01N 25°07' W 043°33'216.9 23.9
2015-May-26 06:54N 25°05' W 043°32'2 0.3 23.9
2015-May-25 23:51N 25°06' W 043°29'1 0.8 24.0
2015-May-25 23:06N 25°06' W 043°29'220.2 24.1
2015-May-25 23:01N 25°08' W 043°28'0 0.6 24.1
2015-May-25 22:09N 25°08' W 043°28'0 0.0 24.1
2015-May-25 21:57N 25°08' W 043°28'0 0.2 24.1
2015-May-25 20:03N 25°08' W 043°28'0 0.2 24.2
2015-May-25 18:06N 25°08' W 043°28'0 0.0 24.2
2015-May-25 18:03N 25°08' W 043°28'0 0.4 24.2
2015-May-25 17:06N 25°08' W 043°28'0 0.1 24.2
2015-May-25 13:33N 25°09' W 043°28'1 0.4 24.0
2015-May-25 11:51N 25°09' W 043°28'1 0.7 23.9
2015-May-25 10:52N 25°10' W 043°28'0 7.2 23.9
2015-May-25 10:49N 25°10' W 043°28'0 0.0
2015-May-25 10:06N 25°10' W 043°28'122.1 23.9
2015-May-25 10:04N 25°09' W 043°29'0 0.0 23.9
2015-May-25 09:31N 25°09' W 043°29'0 0.3 23.9
2015-May-25 07:51N 25°10' W 043°29'1 0.4 23.9
2015-May-25 04:06N 25°08' W 043°29'224.4 24.0
2015-May-25 04:00N 25°06' W 043°30'0 0.0 24.0
2015-May-25 03:54N 25°06' W 043°30'0 0.0 24.0
2015-May-25 01:48N 25°06' W 043°30'2 2.5 24.1
2015-May-25 01:03N 25°07' W 043°28'1 0.5 24.1
2015-May-24 23:16N 25°08' W 043°27'0 0.1 24.2
2015-May-24 20:00N 25°08' W 043°27'0 4.2 24.4
2015-May-24 19:54N 25°07' W 043°26'0 0.2 24.3
2015-May-24 19:04N 25°08' W 043°26'0 0.2 24.4
2015-May-24 18:16N 25°08' W 043°26'1 0.2 24.3
2015-May-24 13:51N 25°08' W 043°25'0 0.2 24.0
2015-May-24 12:09N 25°08' W 043°25'1 7.9 23.9
2015-May-24 12:04N 25°09' W 043°25'1 0.4 23.9
2015-May-24 10:15N 25°09' W 043°24'0 0.2 23.9
2015-May-24 08:12N 25°09' W 043°24'0 0.3 23.9
2015-May-24 06:54N 25°10' W 043°25'1 0.2 23.9
2015-May-24 04:12N 25°10' W 043°25'1 0.3 24.0
2015-May-23 22:54N 25°08' W 043°25'0 0.2 24.2
2015-May-23 21:09N 25°08' W 043°25'1 0.6 24.2
2015-May-23 20:09N 25°08' W 043°25'3 0.5 24.3
2015-May-23 14:12N 25°05' W 043°23'0 0.0 24.1
2015-May-23 12:34N 25°05' W 043°23'2 0.9 24.0
2015-May-23 09:54N 25°06' W 043°21'2 1.0 24.0
2015-May-23 08:09N 25°08' W 043°21'1 1.1 24.0
2015-May-23 07:07N 25°08' W 043°22'120.5 24.0
2015-May-23 07:04N 25°07' W 043°21'0 0.0 24.0
2015-May-23 06:06N 25°07' W 043°21'0 4.5 24.0
2015-May-23 06:03N 25°07' W 043°21'110.5 24.0
2015-May-23 05:58N 25°08' W 043°22'1 0.2 24.0
2015-May-23 01:46N 25°07' W 043°22'0 0.0 24.1
2015-May-23 00:54N 25°07' W 043°22'1 1.2 24.2
2015-May-23 00:09N 25°07' W 043°21'1 7.4 24.2
2015-May-23 00:04N 25°06' W 043°21'0 0.3 24.2
2015-May-22 23:09N 25°06' W 043°22'0 0.1 24.2
2015-May-22 20:04N 25°06' W 043°22'0 4.2 24.4
2015-May-22 19:57N 25°06' W 043°23'0 0.0 24.4
2015-May-22 19:52N 25°06' W 043°23'0 0.1 24.4
2015-May-22 18:12N 25°06' W 043°23'1 0.3 24.3
2015-May-22 15:54N 25°05' W 043°22'3 0.9 24.3
2015-May-22 12:49N 25°03' W 043°20'0 0.0 24.0
2015-May-22 11:54N 25°03' W 043°20'1 0.6 24.0
2015-May-22 09:25N 25°03' W 043°19'0 0.9 23.9
2015-May-22 09:01N 25°03' W 043°19'113.9 23.9
2015-May-22 08:57N 25°03' W 043°18'1 0.4 23.9
2015-May-22 07:16N 25°04' W 043°18'1 9.1 24.0
2015-May-22 07:12N 25°04' W 043°18'0 0.0 24.0
2015-May-22 07:00N 25°04' W 043°18'0 0.0 24.0
2015-May-22 06:54N 25°04' W 043°18'0 0.0 24.0
2015-May-22 06:16N 25°04' W 043°18'0 4.5 24.0
2015-May-22 06:13N 25°04' W 043°17'0 0.0 24.0
2015-May-22 06:07N 25°04' W 043°17'1 0.2
2015-May-22 00:24N 25°04' W 043°18'0 0.1 24.0
2015-May-21 20:16N 25°04' W 043°19'0 0.2 24.2
2015-May-21 17:49N 25°04' W 043°19'2 1.0 24.2
2015-May-21 16:09N 25°04' W 043°20'1 0.5 24.0
2015-May-21 14:01N 25°03' W 043°20'0 0.6 23.9
2015-May-21 13:15N 25°02' W 043°19'1 0.8 23.9
2015-May-21 12:12N 25°02' W 043°19'1 0.3 23.9
2015-May-21 09:09N 25°01' W 043°18'0 6.8 23.9
2015-May-21 09:07N 25°01' W 043°17'0 0.0 23.9
2015-May-21 01:36N 25°02' W 043°17'1 0.7 24.0
2015-May-21 00:48N 25°01' W 043°17'0 0.0 24.0
2015-May-20 23:54N 25°01' W 043°17'1 0.9 24.0
2015-May-20 23:09N 25°00' W 043°17'0 0.0 24.1
2015-May-20 23:04N 25°00' W 043°17'0 8.4 24.1
2015-May-20 23:01N 25°01' W 043°17'1 0.7 24.1
2015-May-20 22:09N 25°01' W 043°16'0 0.1 24.1
2015-May-20 18:00N 25°01' W 043°16'1 0.1 24.2
2015-May-20 12:45N 25°00' W 043°16'0 0.3 23.9
2015-May-20 11:51N 25°00' W 043°16'0 0.4 23.9
2015-May-20 10:58N 24°60' W 043°17'0 0.0 23.9
2015-May-20 10:25N 24°60' W 043°17'1 0.3 23.9
2015-May-20 07:07N 24°60' W 043°16'1 0.3 23.9
2015-May-20 04:54N 25°00' W 043°16'1 0.2 23.9
2015-May-20 01:51N 24°60' W 043°17'1 0.2 23.9
2015-May-19 21:09N 24°59' W 043°16'1 2.4 24.2
2015-May-19 20:54N 24°59' W 043°16'0 0.0 24.2
2015-May-19 19:54N 24°59' W 043°16'0 0.0 24.2
2015-May-19 19:16N 24°59' W 043°16'1 0.7 24.2
2015-May-19 18:09N 24°59' W 043°16'1 0.1 24.2
2015-May-19 13:54N 24°59' W 043°16'0 0.2 23.9
2015-May-19 11:18N 24°59' W 043°16'0 0.0 23.9
2015-May-19 09:54N 24°59' W 043°16'0 0.9 23.9
2015-May-19 09:46N 24°59' W 043°16'0 0.0 23.9
2015-May-19 09:36N 24°59' W 043°16'212.8 23.8
2015-May-19 09:28N 24°58' W 043°14'213.5 23.8
2015-May-19 09:19N 24°58' W 043°16'2 1.2 23.8
2015-May-19 07:40N 24°58' W 043°14'1 1.8 23.9
2015-May-19 06:52N 24°58' W 043°15'0 2.2 23.9
2015-May-19 06:43N 24°59' W 043°15'0 0.0 23.9
2015-May-19 06:12N 24°59' W 043°15'0 0.1 23.9
2015-May-19 05:09N 24°59' W 043°15'0 0.1 23.9
2015-May-19 03:27N 24°59' W 043°15'0 0.0 23.9
2015-May-19 01:30N 24°59' W 043°15'0 0.0 24.0
2015-May-19 00:39N 24°59' W 043°15'0 0.2 24.0
2015-May-18 23:49N 24°59' W 043°15'0 2.4 24.1
2015-May-18 23:45N 24°59' W 043°15'0 3.5 24.1
2015-May-18 23:40N 24°58' W 043°15'0 0.2 24.1
2015-May-18 22:52N 24°58' W 043°15'1 0.8 24.2
2015-May-18 21:33N 24°59' W 043°15'1 2.7 24.3
2015-May-18 21:04N 24°58' W 043°15'0 0.0 24.3
2015-May-18 20:31N 24°58' W 043°15'1 4.6 24.4
2015-May-18 20:21N 24°58' W 043°16'0 0.0 24.4
2015-May-18 19:54N 24°58' W 043°16'0 0.7 24.3
2015-May-18 19:24N 24°58' W 043°15'1 1.0 24.2
2015-May-18 18:22N 24°58' W 043°14'0 1.0 24.4
2015-May-18 18:09N 24°58' W 043°14'0 0.0 24.4
2015-May-18 17:43N 24°58' W 043°14'0 0.4 24.4
2015-May-18 16:43N 24°58' W 043°15'1 0.6 24.4
2015-May-18 14:58N 24°58' W 043°14'0 0.0 24.3
2015-May-18 14:16N 24°58' W 043°14'0 0.1 24.2
2015-May-18 12:34N 24°58' W 043°14'0 3.3 23.9
2015-May-18 12:31N 24°58' W 043°14'0 0.3 23.9
2015-May-18 11:40N 24°58' W 043°14'0 1.3 23.9
2015-May-18 11:34N 24°58' W 043°14'0 0.0 23.9
2015-May-18 10:18N 24°58' W 043°14'0 0.9 23.8
2015-May-18 09:51N 24°58' W 043°14'0 9.5 23.7
2015-May-18 09:48N 24°58' W 043°14'1 7.4 23.7
2015-May-18 09:43N 24°58' W 043°14'0 0.0 23.7
2015-May-18 08:09N 24°58' W 043°14'0 1.7 23.7
2015-May-18 08:03N 24°58' W 043°14'0 0.0 23.7
2015-May-18 08:00N 24°58' W 043°14'0 0.0 23.7
2015-May-18 07:03N 24°58' W 043°14'1 8.6 23.7
2015-May-18 06:54N 24°57' W 043°12'0 0.0 23.7
2015-May-18 05:18N 24°57' W 043°12'1 0.8 23.7
2015-May-18 03:39N 24°59' W 043°13'1 0.4 23.9
2015-May-18 01:48N 24°58' W 043°13'1 0.6 23.9
2015-May-18 00:54N 24°58' W 043°14'1 0.9 24.0
2015-May-18 00:07N 24°58' W 043°13'0 0.0 24.1
2015-May-17 23:19N 24°58' W 043°13'0 4.0 24.2
2015-May-17 23:15N 24°58' W 043°13'011.1
2015-May-17 23:13N 24°58' W 043°13'0 0.0 24.2
2015-May-17 23:09N 24°58' W 043°13'0 0.0
2015-May-17 22:27N 24°58' W 043°13'0 0.0 24.4
2015-May-17 21:54N 24°58' W 043°13'0 0.5 24.5
2015-May-17 21:18N 24°58' W 043°13'117.1 24.7
2015-May-17 21:15N 24°57' W 043°13'1 4.0 24.7
2015-May-17 21:03N 24°58' W 043°13'1 1.1 24.7
2015-May-17 20:19N 24°57' W 043°13'0 0.0 25.1
2015-May-17 19:39N 24°57' W 043°13'0 0.0 25.2
2015-May-17 18:36N 24°57' W 043°13'0 0.0 24.9
2015-May-17 18:30N 24°57' W 043°13'1 2.5 24.9
2015-May-17 17:57N 24°58' W 043°12'127.5 24.9
2015-May-17 17:54N 24°57' W 043°13'1 1.4 24.8
2015-May-17 16:54N 24°58' W 043°12'1 0.4 24.6
2015-May-17 15:12N 24°58' W 043°12'2 0.5 24.3
2015-May-17 12:00N 24°58' W 043°13'0 3.4 23.7
2015-May-17 11:54N 24°58' W 043°13'   23.7
Track history (hours):
 
Tides and Currents Weather Stations Pressure Air Temp Water Temp Dewpoint Dewpoint Depression Visibility Wind Speed Wind Dir Waves Ship Positions

Ao Chao Yang 13516

Last reported at 2015-May-27 11:01 UTC. Time now 2015-May-27 11:52 UTC.
Position N 25°06' W 043°34'.

Length 20 m.

Type: Fishing. MMSI: 412469022.

Water temperature 24.0 ° C

Date/timePositionNaut miles runAvg speedWind from/ knotsBaromVisibWave heightAir tempDewpointWater temp
2015-May-27 11:01N 25°06' W 043°34'0 0.0 24.0
2015-May-27 09:54N 25°06' W 043°34'0 0.2 23.9
2015-May-27 08:01N 25°05' W 043°34'325.7 24.0
2015-May-27 07:54N 25°04' W 043°31'0 0.0
2015-May-27 07:03N 25°04' W 043°31'0 0.0 24.0
2015-May-27 06:45N 25°04' W 043°31'3 0.3 24.0
2015-May-26 21:12N 25°07' W 043°31'0 0.0 24.0
2015-May-26 19:54N 25°07' W 043°31'0 0.4 24.1
2015-May-26 18:30N 25°07' W 043°32'0 0.6 24.1
2015-May-26 17:54N 25°07' W 043°31'0 5.9 24.1
2015-May-26 17:49N 25°07' W 043°32'0 0.0 24.1
2015-May-26 16:54N 25°07' W 043°32'1 0.3 24.1
2015-May-26 15:12N 25°07' W 043°32'0 4.4 24.0
2015-May-26 15:07N 25°07' W 043°32'0 0.3 24.0
2015-May-26 13:58N 25°07' W 043°32'1 0.4 24.0
2015-May-26 12:13N 25°07' W 043°33'0 5.2 23.9
2015-May-26 12:09N 25°07' W 043°33'0 0.0 23.9
2015-May-26 10:33N 25°07' W 043°33'0 0.1 23.9
2015-May-26 08:34N 25°07' W 043°33'0 0.0 23.9
2015-May-26 08:07N 25°07' W 043°33'0 0.0 23.9
2015-May-26 08:06N 25°07' W 043°33'0 0.5 23.9
2015-May-26 07:13N 25°07' W 043°33'0 2.2 23.9
2015-May-26 07:01N 25°07' W 043°33'216.9 23.9
2015-May-26 06:54N 25°05' W 043°32'2 0.3 23.9
2015-May-25 23:51N 25°06' W 043°29'1 0.8 24.0
2015-May-25 23:06N 25°06' W 043°29'220.2 24.1
2015-May-25 23:01N 25°08' W 043°28'0 0.6 24.1
2015-May-25 22:09N 25°08' W 043°28'0 0.0 24.1
2015-May-25 21:57N 25°08' W 043°28'0 0.2 24.1
2015-May-25 20:03N 25°08' W 043°28'0 0.2 24.2
2015-May-25 18:06N 25°08' W 043°28'0 0.0 24.2
2015-May-25 18:03N 25°08' W 043°28'0 0.4 24.2
2015-May-25 17:06N 25°08' W 043°28'0 0.1 24.2
2015-May-25 13:33N 25°09' W 043°28'1 0.4 24.0
2015-May-25 11:51N 25°09' W 043°28'1 0.7 23.9
2015-May-25 10:52N 25°10' W 043°28'0 7.2 23.9
2015-May-25 10:49N 25°10' W 043°28'0 0.0
2015-May-25 10:06N 25°10' W 043°28'122.1 23.9
2015-May-25 10:04N 25°09' W 043°29'0 0.0 23.9
2015-May-25 09:31N 25°09' W 043°29'0 0.3 23.9
2015-May-25 07:51N 25°10' W 043°29'1 0.4 23.9
2015-May-25 04:06N 25°08' W 043°29'224.4 24.0
2015-May-25 04:00N 25°06' W 043°30'0 0.0 24.0
2015-May-25 03:54N 25°06' W 043°30'0 0.0 24.0
2015-May-25 01:48N 25°06' W 043°30'2 2.5 24.1
2015-May-25 01:03N 25°07' W 043°28'1 0.5 24.1
2015-May-24 23:16N 25°08' W 043°27'0 0.1 24.2
2015-May-24 20:00N 25°08' W 043°27'0 4.2 24.4
2015-May-24 19:54N 25°07' W 043°26'0 0.2 24.3
2015-May-24 19:04N 25°08' W 043°26'0 0.2 24.4
2015-May-24 18:16N 25°08' W 043°26'1 0.2 24.3
2015-May-24 13:51N 25°08' W 043°25'0 0.2 24.0
2015-May-24 12:09N 25°08' W 043°25'1 7.9 23.9
2015-May-24 12:04N 25°09' W 043°25'1 0.4 23.9
2015-May-24 10:15N 25°09' W 043°24'0 0.2 23.9
2015-May-24 08:12N 25°09' W 043°24'0 0.3 23.9
2015-May-24 06:54N 25°10' W 043°25'1 0.2 23.9
2015-May-24 04:12N 25°10' W 043°25'1 0.3 24.0
2015-May-23 22:54N 25°08' W 043°25'0 0.2 24.2
2015-May-23 21:09N 25°08' W 043°25'1 0.6 24.2
2015-May-23 20:09N 25°08' W 043°25'3 0.5 24.3
2015-May-23 14:12N 25°05' W 043°23'0 0.0 24.1
2015-May-23 12:34N 25°05' W 043°23'2 0.9 24.0
2015-May-23 09:54N 25°06' W 043°21'2 1.0 24.0
2015-May-23 08:09N 25°08' W 043°21'1 1.1 24.0
2015-May-23 07:07N 25°08' W 043°22'120.5 24.0
2015-May-23 07:04N 25°07' W 043°21'0 0.0 24.0
2015-May-23 06:06N 25°07' W 043°21'0 4.5 24.0
2015-May-23 06:03N 25°07' W 043°21'110.5 24.0
2015-May-23 05:58N 25°08' W 043°22'1 0.2 24.0
2015-May-23 01:46N 25°07' W 043°22'0 0.0 24.1
2015-May-23 00:54N 25°07' W 043°22'1 1.2 24.2
2015-May-23 00:09N 25°07' W 043°21'1 7.4 24.2
2015-May-23 00:04N 25°06' W 043°21'0 0.3 24.2
2015-May-22 23:09N 25°06' W 043°22'0 0.1 24.2
2015-May-22 20:04N 25°06' W 043°22'0 4.2 24.4
2015-May-22 19:57N 25°06' W 043°23'0 0.0 24.4
2015-May-22 19:52N 25°06' W 043°23'0 0.1 24.4
2015-May-22 18:12N 25°06' W 043°23'1 0.3 24.3
2015-May-22 15:54N 25°05' W 043°22'3 0.9 24.3
2015-May-22 12:49N 25°03' W 043°20'0 0.0 24.0
2015-May-22 11:54N 25°03' W 043°20'1 0.6 24.0
2015-May-22 09:25N 25°03' W 043°19'0 0.9 23.9
2015-May-22 09:01N 25°03' W 043°19'113.9 23.9
2015-May-22 08:57N 25°03' W 043°18'1 0.4 23.9
2015-May-22 07:16N 25°04' W 043°18'1 9.1 24.0
2015-May-22 07:12N 25°04' W 043°18'0 0.0 24.0
2015-May-22 07:00N 25°04' W 043°18'0 0.0 24.0
2015-May-22 06:54N 25°04' W 043°18'0 0.0 24.0
2015-May-22 06:16N 25°04' W 043°18'0 4.5 24.0
2015-May-22 06:13N 25°04' W 043°17'0 0.0 24.0
2015-May-22 06:07N 25°04' W 043°17'1 0.2
2015-May-22 00:24N 25°04' W 043°18'0 0.1 24.0
2015-May-21 20:16N 25°04' W 043°19'0 0.2 24.2
2015-May-21 17:49N 25°04' W 043°19'2 1.0 24.2
2015-May-21 16:09N 25°04' W 043°20'1 0.5 24.0
2015-May-21 14:01N 25°03' W 043°20'0 0.6 23.9
2015-May-21 13:15N 25°02' W 043°19'1 0.8 23.9
2015-May-21 12:12N 25°02' W 043°19'1 0.3 23.9
2015-May-21 09:09N 25°01' W 043°18'0 6.8 23.9
2015-May-21 09:07N 25°01' W 043°17'0 0.0 23.9
2015-May-21 01:36N 25°02' W 043°17'1 0.7 24.0
2015-May-21 00:48N 25°01' W 043°17'0 0.0 24.0
2015-May-20 23:54N 25°01' W 043°17'1 0.9 24.0
2015-May-20 23:09N 25°00' W 043°17'0 0.0 24.1
2015-May-20 23:04N 25°00' W 043°17'0 8.4 24.1
2015-May-20 23:01N 25°01' W 043°17'1 0.7 24.1
2015-May-20 22:09N 25°01' W 043°16'0 0.1 24.1
2015-May-20 18:00N 25°01' W 043°16'1 0.1 24.2
2015-May-20 12:45N 25°00' W 043°16'0 0.3 23.9
2015-May-20 11:51N 25°00' W 043°16'0 0.4 23.9
2015-May-20 10:58N 24°60' W 043°17'0 0.0 23.9
2015-May-20 10:25N 24°60' W 043°17'1 0.3 23.9
2015-May-20 07:07N 24°60' W 043°16'1 0.3 23.9
2015-May-20 04:54N 25°00' W 043°16'1 0.2 23.9
2015-May-20 01:51N 24°60' W 043°17'1 0.2 23.9
2015-May-19 21:09N 24°59' W 043°16'1 2.4 24.2
2015-May-19 20:54N 24°59' W 043°16'0 0.0 24.2
2015-May-19 19:54N 24°59' W 043°16'0 0.0 24.2
2015-May-19 19:16N 24°59' W 043°16'1 0.7 24.2
2015-May-19 18:09N 24°59' W 043°16'1 0.1 24.2
2015-May-19 13:54N 24°59' W 043°16'0 0.2 23.9
2015-May-19 11:18N 24°59' W 043°16'0 0.0 23.9
2015-May-19 09:54N 24°59' W 043°16'0 0.9 23.9
2015-May-19 09:46N 24°59' W 043°16'0 0.0 23.9
2015-May-19 09:36N 24°59' W 043°16'212.8 23.8
2015-May-19 09:28N 24°58' W 043°14'213.5 23.8
2015-May-19 09:19N 24°58' W 043°16'2 1.2 23.8
2015-May-19 07:40N 24°58' W 043°14'1 1.8 23.9
2015-May-19 06:52N 24°58' W 043°15'0 2.2 23.9
2015-May-19 06:43N 24°59' W 043°15'0 0.0 23.9
2015-May-19 06:12N 24°59' W 043°15'0 0.1 23.9
2015-May-19 05:09N 24°59' W 043°15'0 0.1 23.9
2015-May-19 03:27N 24°59' W 043°15'0 0.0 23.9
2015-May-19 01:30N 24°59' W 043°15'0 0.0 24.0
2015-May-19 00:39N 24°59' W 043°15'0 0.2 24.0
2015-May-18 23:49N 24°59' W 043°15'0 2.4 24.1
2015-May-18 23:45N 24°59' W 043°15'0 3.5 24.1
2015-May-18 23:40N 24°58' W 043°15'0 0.2 24.1
2015-May-18 22:52N 24°58' W 043°15'1 0.8 24.2
2015-May-18 21:33N 24°59' W 043°15'1 2.7 24.3
2015-May-18 21:04N 24°58' W 043°15'0 0.0 24.3
2015-May-18 20:31N 24°58' W 043°15'1 4.6 24.4
2015-May-18 20:21N 24°58' W 043°16'0 0.0 24.4
2015-May-18 19:54N 24°58' W 043°16'0 0.7 24.3
2015-May-18 19:24N 24°58' W 043°15'1 1.0 24.2
2015-May-18 18:22N 24°58' W 043°14'0 1.0 24.4
2015-May-18 18:09N 24°58' W 043°14'0 0.0 24.4
2015-May-18 17:43N 24°58' W 043°14'0 0.4 24.4
2015-May-18 16:43N 24°58' W 043°15'1 0.6 24.4
2015-May-18 14:58N 24°58' W 043°14'0 0.0 24.3
2015-May-18 14:16N 24°58' W 043°14'0 0.1 24.2
2015-May-18 12:34N 24°58' W 043°14'0 3.3 23.9
2015-May-18 12:31N 24°58' W 043°14'0 0.3 23.9
2015-May-18 11:40N 24°58' W 043°14'0 1.3 23.9
2015-May-18 11:34N 24°58' W 043°14'0 0.0 23.9
2015-May-18 10:18N 24°58' W 043°14'0 0.9 23.8
2015-May-18 09:51N 24°58' W 043°14'0 9.5 23.7
2015-May-18 09:48N 24°58' W 043°14'1 7.4 23.7
2015-May-18 09:43N 24°58' W 043°14'0 0.0 23.7
2015-May-18 08:09N 24°58' W 043°14'0 1.7 23.7
2015-May-18 08:03N 24°58' W 043°14'0 0.0 23.7
2015-May-18 08:00N 24°58' W 043°14'0 0.0 23.7
2015-May-18 07:03N 24°58' W 043°14'1 8.6 23.7
2015-May-18 06:54N 24°57' W 043°12'0 0.0 23.7
2015-May-18 05:18N 24°57' W 043°12'1 0.8 23.7
2015-May-18 03:39N 24°59' W 043°13'1 0.4 23.9
2015-May-18 01:48N 24°58' W 043°13'1 0.6 23.9
2015-May-18 00:54N 24°58' W 043°14'1 0.9 24.0
2015-May-18 00:07N 24°58' W 043°13'0 0.0 24.1
2015-May-17 23:19N 24°58' W 043°13'0 4.0 24.2
2015-May-17 23:15N 24°58' W 043°13'011.1
2015-May-17 23:13N 24°58' W 043°13'0 0.0 24.2
2015-May-17 23:09N 24°58' W 043°13'0 0.0
2015-May-17 22:27N 24°58' W 043°13'0 0.0 24.4
2015-May-17 21:54N 24°58' W 043°13'0 0.5 24.5
2015-May-17 21:18N 24°58' W 043°13'117.1 24.7
2015-May-17 21:15N 24°57' W 043°13'1 4.0 24.7
2015-May-17 21:03N 24°58' W 043°13'1 1.1 24.7
2015-May-17 20:19N 24°57' W 043°13'0 0.0 25.1
2015-May-17 19:39N 24°57' W 043°13'0 0.0 25.2
2015-May-17 18:36N 24°57' W 043°13'0 0.0 24.9
2015-May-17 18:30N 24°57' W 043°13'1 2.5 24.9
2015-May-17 17:57N 24°58' W 043°12'127.5 24.9
2015-May-17 17:54N 24°57' W 043°13'1 1.4 24.8
2015-May-17 16:54N 24°58' W 043°12'1 0.4 24.6
2015-May-17 15:12N 24°58' W 043°12'2 0.5 24.3
2015-May-17 12:00N 24°58' W 043°13'0 3.4 23.7
2015-May-17 11:54N 24°58' W 043°13'   23.7

Dump ship's entire track history